This is the latest recevied weather packets stored in our database for station/object JF1AJE-13. If no packets are shown the sender has not sent any weather packets the latest 10 day(s).
| Time | Temp. | Humidity | Pressure | Rain* | Wind** | Luminosity | Snow |
|---|---|---|---|---|---|---|---|
| 1777536548 | 15° C | 54% | 1016.4 hPa | 0 mm | - | - | - |
| 1777535348 | 15° C | 53% | 1016.4 hPa | 0 mm | - | - | - |
| 1777531750 | 15° C | 55% | 1016.7 hPa | 0 mm | - | - | - |
| 1777530548 | 15° C | 54% | 1016.9 hPa | 0 mm | - | - | - |
| 1777529348 | 15° C | 55% | 1017 hPa | 0 mm | - | - | - |
| 1777528147 | 15° C | 55% | 1017 hPa | 0 mm | - | - | - |
| 1777526948 | 15° C | 55% | 1017.3 hPa | 0 mm | - | - | - |
| 1777525747 | 15.56° C | 53% | 1017.4 hPa | 0 mm | - | - | - |
| 1777524548 | 15.56° C | 53% | 1017.5 hPa | 0 mm | - | - | - |
| 1777523347 | 15.56° C | 52% | 1017.6 hPa | 0 mm | - | - | - |
| 1777522148 | 15.56° C | 52% | 1017.8 hPa | 0 mm | - | - | - |
| 1777520950 | 15.56° C | 51% | 1017.9 hPa | 0 mm | - | - | - |
| 1777519747 | 15.56° C | 52% | 1018 hPa | 0 mm | - | - | - |
| 1777518548 | 15.56° C | 54% | 1018.1 hPa | 0 mm | - | - | - |
| 1777517349 | 15° C | 57% | 1018.4 hPa | 0 mm | - | - | - |
| 1777516147 | 14.44° C | 59% | 1018.7 hPa | 0 mm | - | - | - |
| 1777514949 | 14.44° C | 59% | 1018.5 hPa | 0 mm | - | - | - |
| 1777513748 | 14.44° C | 65% | 1018.6 hPa | 0 mm | - | - | - |
| 1777512547 | 13.89° C | 68% | 1018.6 hPa | 0 mm | - | - | - |
| 1777511346 | 13.89° C | 72% | 1018.6 hPa | 0 mm | - | - | - |
| 1777510147 | 13.33° C | 74% | 1018.5 hPa | 0 mm | - | - | - |
| 1777508948 | 12.78° C | 78% | 1018.3 hPa | 0 mm | - | - | - |
| 1777507746 | 12.78° C | 80% | 1018.1 hPa | 0 mm | - | - | - |
| 1777506547 | 12.22° C | 83% | 1018.1 hPa | 0 mm | - | - | - |
| 1777505349 | 12.22° C | 85% | 1017.8 hPa | 0 mm | - | - | - |
* Rain latest hour (hover to see other rain measurements)
** Current wind speed in m/s (hover to see current wind gust speed)